createdAt,value
2022-08-29T00:00:59.576Z,9.711968
2022-08-29T00:01:59.555Z,9.711907
2022-08-29T00:02:59.513Z,9.711982
2022-08-29T00:03:59.549Z,9.712268
2022-08-29T00:04:59.500Z,9.712262
2022-08-29T00:05:59.494Z,9.712053
2022-08-29T00:07:00.137Z,9.712045
2022-08-29T00:07:59.470Z,9.712086
2022-08-29T00:08:59.472Z,9.712094
2022-08-29T00:09:59.461Z,9.712081
2022-08-29T00:10:59.448Z,9.712036
2022-08-29T00:11:59.445Z,9.711857
2022-08-29T00:12:59.431Z,9.711988
2022-08-29T00:13:59.432Z,9.711761
2022-08-29T00:14:59.419Z,9.711693
2022-08-29T00:15:59.409Z,9.711927
2022-08-29T00:16:59.462Z,9.712106
2022-08-29T00:17:59.387Z,9.712015
2022-08-29T00:19:00.390Z,9.712042
2022-08-29T00:19:59.393Z,9.711743
2022-08-29T00:20:59.372Z,9.711810
2022-08-29T00:21:59.381Z,9.711795
2022-08-29T00:22:59.362Z,9.711781
2022-08-29T00:23:59.343Z,9.711824
2022-08-29T00:24:59.329Z,9.712018
2022-08-29T00:26:00.327Z,9.712024
2022-08-29T00:26:59.320Z,9.711993
2022-08-29T00:27:59.321Z,9.712072
2022-08-29T00:28:59.311Z,9.712018
2022-08-29T00:29:59.305Z,9.711872
2022-08-29T00:53:00.892Z,9.711720
2022-08-29T00:54:00.880Z,9.711777
2022-08-29T00:55:00.874Z,9.711946
2022-08-29T00:56:00.868Z,9.711946
2022-08-29T00:57:00.849Z,9.711598
2022-08-29T00:58:00.869Z,9.711604
2022-08-29T00:59:00.841Z,9.711650
2022-08-29T01:00:00.833Z,9.711733
2022-08-29T01:01:00.869Z,9.711745
2022-08-29T01:02:00.881Z,9.711932
2022-08-29T01:03:00.811Z,9.711932
2022-08-29T01:04:00.800Z,9.711932
2022-08-29T01:05:00.786Z,9.711932
2022-08-29T01:06:00.778Z,9.711932
2022-08-29T01:07:00.770Z,9.711932
2022-08-29T01:08:00.778Z,9.711932
2022-08-29T01:09:00.767Z,9.711932
2022-08-29T01:10:00.744Z,9.711932
2022-08-29T01:11:01.740Z,9.711932
2022-08-29T01:12:00.731Z,9.711653
2022-08-29T01:13:00.737Z,9.711723
2022-08-29T01:14:00.715Z,9.711852
2022-08-29T01:15:00.718Z,9.711810
2022-08-29T01:16:00.750Z,9.711851
2022-08-29T01:17:00.687Z,9.711899
2022-08-29T01:18:00.689Z,9.711819
2022-08-29T01:19:00.670Z,9.711689
2022-08-29T01:20:00.680Z,9.712472
2022-08-29T01:21:00.656Z,9.712379
2022-08-29T01:22:00.656Z,9.712345
2022-08-29T01:23:00.642Z,9.711883
2022-08-29T01:24:00.648Z,9.711684
2022-08-29T01:25:00.623Z,9.711692
2022-08-29T01:26:00.610Z,9.711647
2022-08-29T01:27:00.610Z,9.711718
2022-08-29T01:28:00.604Z,9.711791
2022-08-29T01:29:00.589Z,9.711680
2022-08-29T01:30:01.577Z,9.711850
2022-08-29T01:31:00.586Z,9.711831
2022-08-29T01:32:00.603Z,9.711656
2022-08-29T01:33:00.562Z,9.711661
2022-08-29T01:34:00.554Z,9.711387
2022-08-29T01:35:00.540Z,9.711461
2022-08-29T01:36:00.532Z,9.711593
2022-08-29T01:37:00.530Z,9.711860
2022-08-29T01:38:00.515Z,9.711897
2022-08-29T01:39:01.417Z,9.711818
2022-08-29T01:40:01.494Z,9.711874
2022-08-29T01:41:00.529Z,9.711791
2022-08-29T01:42:00.492Z,9.711683
2022-08-29T01:43:00.478Z,9.711679
2022-08-29T01:44:00.487Z,9.711759
2022-08-29T01:45:00.464Z,9.711670
2022-08-29T01:46:00.512Z,9.711669
2022-08-29T01:47:03.015Z,9.711695
2022-08-29T01:48:03.548Z,9.711611
2022-08-29T01:49:01.446Z,9.711500
2022-08-29T01:50:00.428Z,9.711563
2022-08-29T01:51:00.425Z,9.711475
2022-08-29T01:52:00.410Z,9.711459
2022-08-29T01:53:00.426Z,9.711894
2022-08-29T01:54:00.383Z,9.712244
2022-08-29T01:55:00.374Z,9.712010
2022-08-29T01:56:00.375Z,9.711798
2022-08-29T01:57:00.357Z,9.711846
2022-08-29T01:58:00.358Z,9.711627
2022-08-29T01:59:00.357Z,9.711531
2022-08-29T02:00:00.340Z,9.711656
2022-08-29T02:01:00.364Z,9.711497
2022-08-29T02:02:00.373Z,9.711373
2022-08-29T02:03:00.311Z,9.711555
2022-08-29T02:04:00.297Z,9.711641
2022-08-29T02:05:00.293Z,9.711883
2022-08-29T02:06:00.279Z,9.712090
2022-08-29T02:07:00.269Z,9.711938
2022-08-29T02:08:00.265Z,9.711831
2022-08-29T02:09:00.246Z,9.711757
2022-08-29T02:10:01.260Z,9.711710
2022-08-29T02:11:00.254Z,9.711505
2022-08-29T02:12:00.238Z,9.711559
2022-08-29T02:13:00.239Z,9.711370
2022-08-29T02:14:00.216Z,9.711239
2022-08-29T02:15:00.220Z,9.711380
2022-08-29T02:16:00.256Z,9.711329
2022-08-29T02:17:01.211Z,9.711306
2022-08-29T02:18:00.192Z,9.711438
2022-08-29T02:19:00.177Z,9.711607
2022-08-29T02:20:00.205Z,9.711595
2022-08-29T02:21:00.164Z,9.711351
2022-08-29T02:22:00.165Z,9.711392
2022-08-29T02:23:00.149Z,9.711399
2022-08-29T02:24:11.256Z,9.711358
2022-08-29T02:25:01.123Z,9.711755
2022-08-29T02:26:00.931Z,9.711705
2022-08-29T02:27:00.123Z,9.711709
2022-08-29T02:28:00.103Z,9.711689
2022-08-29T02:29:00.101Z,9.711717
2022-08-29T02:30:01.093Z,9.711750
2022-08-29T02:31:00.107Z,9.711763
2022-08-29T02:32:00.920Z,9.711686
2022-08-29T02:33:00.077Z,9.711720
2022-08-29T02:34:00.058Z,9.711701
2022-08-29T02:35:00.083Z,9.711657
2022-08-29T02:36:00.055Z,9.711677
2022-08-29T02:37:00.037Z,9.711647
2022-08-29T02:38:00.033Z,9.711629
2022-08-29T02:39:00.018Z,9.711638
2022-08-29T02:40:00.048Z,9.711617
2022-08-29T02:41:00.007Z,9.711660
2022-08-29T02:42:00.007Z,9.711730
2022-08-29T02:42:59.997Z,9.711665
2022-08-29T02:43:59.972Z,9.711701
2022-08-29T02:44:59.969Z,9.711683
2022-08-29T02:45:59.957Z,9.711670
2022-08-29T02:47:00.031Z,9.711627
2022-08-29T02:47:59.940Z,9.711643
2022-08-29T02:49:01.314Z,9.711649
2022-08-29T02:49:59.981Z,9.711677
2022-08-29T02:50:59.915Z,9.711679
2022-08-29T02:51:59.934Z,9.711659
2022-08-29T02:52:59.915Z,9.711655
2022-08-29T02:53:59.892Z,9.711649
2022-08-29T02:54:59.909Z,9.711641
2022-08-29T02:55:59.873Z,9.711602
2022-08-29T02:56:59.866Z,9.711720
2022-08-29T02:57:59.866Z,9.711663
2022-08-29T02:58:59.887Z,9.711608
2022-08-29T02:59:59.857Z,9.711617
2022-08-29T03:00:59.920Z,9.711567
2022-08-29T03:01:59.921Z,9.711659
2022-08-29T03:02:59.833Z,9.711615
2022-08-29T03:03:59.855Z,9.711572
2022-08-29T03:04:59.800Z,9.711570
2022-08-29T03:05:59.809Z,9.711556
2022-08-29T03:06:59.806Z,9.711535
2022-08-29T03:07:59.778Z,9.711563
2022-08-29T03:08:59.785Z,9.711571
2022-08-29T03:09:59.758Z,9.711539
2022-08-29T03:10:59.766Z,9.711566
2022-08-29T03:11:59.743Z,9.711543
2022-08-29T03:12:59.738Z,9.711464
2022-08-29T03:13:59.734Z,9.711681
2022-08-29T03:14:59.721Z,9.711588
2022-08-29T03:15:59.799Z,9.711691
2022-08-29T03:16:59.703Z,9.711648
2022-08-29T03:17:59.702Z,9.711495
2022-08-29T03:19:00.434Z,9.711567
2022-08-29T03:19:59.685Z,9.711465
2022-08-29T03:20:59.684Z,9.711516
2022-08-29T03:21:59.675Z,9.711567
2022-08-29T03:22:59.664Z,9.711563
2022-08-29T03:23:59.652Z,9.711517
2022-08-29T03:24:59.641Z,9.711498
2022-08-29T03:25:59.636Z,9.711521
2022-08-29T03:26:59.626Z,9.711568
2022-08-29T03:27:59.644Z,9.711544
2022-08-29T03:28:59.616Z,9.711488
2022-08-29T03:29:59.603Z,9.711522
2022-08-29T03:30:59.673Z,9.711571
2022-08-29T03:32:00.440Z,9.711530
2022-08-29T03:32:59.591Z,9.711520
2022-08-29T03:33:59.573Z,9.711490
2022-08-29T03:34:59.563Z,9.711445
2022-08-29T03:35:59.549Z,9.711495
2022-08-29T03:36:59.576Z,9.711591
2022-08-29T03:37:59.539Z,9.711543
2022-08-29T03:38:59.521Z,9.711529
2022-08-29T03:39:59.572Z,9.711426
2022-08-29T03:40:59.520Z,9.711432
2022-08-29T03:41:59.500Z,9.711533
2022-08-29T03:42:59.493Z,9.711544
2022-08-29T03:43:59.480Z,9.711559
2022-08-29T03:44:59.533Z,9.711582
2022-08-29T03:45:59.464Z,9.711602
2022-08-29T03:46:59.542Z,9.711660
2022-08-29T03:47:59.449Z,9.711533
2022-08-29T03:48:59.444Z,9.711604
2022-08-29T03:49:59.441Z,9.711523
2022-08-29T03:50:59.421Z,9.711507
2022-08-29T03:51:59.419Z,9.711575
2022-08-29T03:52:59.453Z,9.711382
2022-08-29T03:53:59.406Z,9.711488
2022-08-29T03:54:59.405Z,9.711592
2022-08-29T03:55:59.390Z,9.711617
2022-08-29T03:56:59.374Z,9.711444
2022-08-29T03:57:59.376Z,9.711573
2022-08-29T03:58:59.368Z,9.711630
2022-08-29T03:59:59.373Z,9.712056
2022-08-29T04:00:59.367Z,9.711749
2022-08-29T04:01:59.372Z,9.711631
2022-08-29T04:02:59.391Z,9.711579
2022-08-29T04:03:59.320Z,9.711544
2022-08-29T04:04:59.323Z,9.711525
2022-08-29T04:05:59.306Z,9.711497
2022-08-29T04:06:59.303Z,9.711502
2022-08-29T04:07:59.293Z,9.711567
2022-08-29T04:08:59.290Z,9.711696
2022-08-29T04:09:59.283Z,9.711986
2022-08-29T04:10:59.271Z,9.712323
2022-08-29T04:11:59.277Z,9.712754
2022-08-29T04:12:59.263Z,9.712531
2022-08-29T04:13:59.872Z,9.712934
2022-08-29T04:14:59.234Z,9.712678
2022-08-29T04:15:59.256Z,9.712197
2022-08-29T04:16:59.978Z,9.712100
2022-08-29T04:17:59.208Z,9.711643
2022-08-29T04:18:59.477Z,9.711669
2022-08-29T04:42:06.385Z,9.711395
2022-08-29T04:43:06.387Z,9.711747
2022-08-29T04:44:06.375Z,9.711747
2022-08-29T04:45:06.546Z,9.711574
2022-08-29T04:46:07.873Z,9.711467
2022-08-29T04:47:07.351Z,9.711642
2022-08-29T04:48:06.349Z,9.711486
2022-08-29T04:49:06.354Z,9.711521
2022-08-29T04:50:06.326Z,9.711570
2022-08-29T04:51:06.321Z,9.711519
2022-08-29T04:52:06.318Z,9.711606
2022-08-29T04:53:06.314Z,9.711619
2022-08-29T04:54:06.308Z,9.711506
2022-08-29T04:55:06.281Z,9.711486
2022-08-29T04:56:06.296Z,9.711492
2022-08-29T04:57:06.268Z,9.711493
2022-08-29T04:58:06.275Z,9.711462
2022-08-29T04:59:06.253Z,9.711512
2022-08-29T05:00:06.256Z,9.711544
2022-08-29T05:01:06.243Z,9.711694
2022-08-29T05:02:06.288Z,9.711579
2022-08-29T05:03:06.297Z,9.711684
2022-08-29T05:04:06.221Z,9.711734
2022-08-29T05:05:06.910Z,9.712000
2022-08-29T05:06:06.210Z,9.711823
2022-08-29T05:07:06.203Z,9.711348
2022-08-29T05:08:06.203Z,9.711473
2022-08-29T05:09:06.168Z,9.711714
2022-08-29T05:10:06.161Z,9.711842
2022-08-29T05:11:06.149Z,9.711699
2022-08-29T05:12:10.144Z,9.711635
2022-08-29T05:13:07.154Z,9.711650
2022-08-29T05:14:06.131Z,9.711725
2022-08-29T05:15:06.120Z,9.711748
2022-08-29T05:16:06.191Z,9.711571
2022-08-29T05:17:06.106Z,9.711400
2022-08-29T05:18:06.088Z,9.711507
2022-08-29T05:19:06.093Z,9.711725
2022-08-29T05:20:06.074Z,9.711827
2022-08-29T05:21:06.066Z,9.711680
2022-08-29T05:22:06.058Z,9.711765
2022-08-29T05:23:06.054Z,9.711961
2022-08-29T05:24:06.041Z,9.711662
2022-08-29T05:25:06.027Z,9.711462
2022-08-29T05:26:06.033Z,9.711585
2022-08-29T05:27:06.041Z,9.711613
2022-08-29T05:28:06.063Z,9.711583
2022-08-29T05:29:08.390Z,9.711503
2022-08-29T05:30:05.993Z,9.711638
2022-08-29T05:31:06.027Z,9.711701
2022-08-29T05:32:05.985Z,9.711738
2022-08-29T05:33:05.975Z,9.711547
2022-08-29T05:34:21.906Z,9.711578
2022-08-29T05:35:06.948Z,9.711556
2022-08-29T05:36:05.945Z,9.711554
2022-08-29T05:37:05.937Z,9.711560
2022-08-29T05:38:09.028Z,9.711552
2022-08-29T05:39:06.927Z,9.711576
2022-08-29T05:40:05.972Z,9.711659
2022-08-29T05:41:05.910Z,9.711622
2022-08-29T05:42:05.904Z,9.711718
2022-08-29T05:43:05.891Z,9.711663
2022-08-29T05:44:05.887Z,9.711671
2022-08-29T05:45:05.889Z,9.711664
2022-08-29T05:46:05.905Z,9.711684
2022-08-29T05:47:05.852Z,9.711696
2022-08-29T05:48:06.850Z,9.711690
2022-08-29T05:49:05.845Z,9.711614
2022-08-29T05:50:05.844Z,9.711624
2022-08-29T05:51:05.817Z,9.711641
2022-08-29T05:52:05.817Z,9.711663
2022-08-29T05:53:05.803Z,9.711657
2022-08-29T05:54:05.794Z,9.711683
2022-08-29T05:55:05.791Z,9.711681
2022-08-29T05:56:05.775Z,9.711670
2022-08-29T05:57:05.809Z,9.711698
2022-08-29T05:58:05.772Z,9.711622
2022-08-29T05:59:05.764Z,9.711602
2022-08-29T06:00:05.742Z,9.711588
2022-08-29T06:01:05.730Z,9.711649
2022-08-29T06:02:05.730Z,9.711629
2022-08-29T06:03:05.856Z,9.711627
2022-08-29T06:04:05.842Z,9.711584
2022-08-29T06:05:05.704Z,9.711627
2022-08-29T06:06:05.697Z,9.711661
2022-08-29T06:07:05.705Z,9.711583
2022-08-29T06:08:05.675Z,9.711735
2022-08-29T06:09:05.678Z,9.711636
2022-08-29T06:10:05.655Z,9.711457
2022-08-29T06:11:06.741Z,9.711618
2022-08-29T06:12:05.659Z,9.711567
2022-08-29T06:13:06.565Z,9.711486
2022-08-29T06:14:05.630Z,9.711586
2022-08-29T06:15:05.630Z,9.711588
2022-08-29T06:16:05.708Z,9.711844
2022-08-29T06:17:05.615Z,9.711716
2022-08-29T06:18:05.620Z,9.711817
2022-08-29T06:19:05.584Z,9.711931
2022-08-29T06:20:05.591Z,9.712061
2022-08-29T06:21:05.576Z,9.712537
2022-08-29T06:22:09.608Z,9.711915
2022-08-29T06:23:05.557Z,9.711640
2022-08-29T06:24:05.555Z,9.711557
2022-08-29T06:25:28.065Z,9.711395
2022-08-29T06:26:07.541Z,9.711714
2022-08-29T06:27:05.524Z,9.711745
2022-08-29T06:28:05.524Z,9.711634
2022-08-29T06:29:05.510Z,9.711683
2022-08-29T06:30:05.497Z,9.711692
2022-08-29T06:31:05.575Z,9.711537
2022-08-29T06:32:05.479Z,9.711531
2022-08-29T06:33:05.490Z,9.711514
2022-08-29T06:34:05.505Z,9.711495
2022-08-29T06:35:05.585Z,9.711538
2022-08-29T06:36:05.545Z,9.711572
2022-08-29T06:37:05.474Z,9.711788
2022-08-29T06:38:05.445Z,9.711637
2022-08-29T06:39:05.454Z,9.711536
2022-08-29T06:40:07.422Z,9.711642
2022-08-29T06:41:05.422Z,9.711618
2022-08-29T06:42:05.412Z,9.711452
2022-08-29T06:43:05.403Z,9.711346
2022-08-29T06:44:05.399Z,9.711088
2022-08-29T06:45:05.382Z,9.711293
2022-08-29T06:46:05.386Z,9.711185
2022-08-29T06:47:05.374Z,9.711317
2022-08-29T06:48:05.366Z,9.711205
2022-08-29T06:49:05.374Z,9.711523
2022-08-29T06:50:05.348Z,9.711712
2022-08-29T06:51:05.337Z,9.711605
2022-08-29T06:52:05.341Z,9.711619
2022-08-29T06:53:26.472Z,9.711630
2022-08-29T06:54:07.377Z,9.711546
2022-08-29T06:55:05.305Z,9.711398
2022-08-29T06:56:05.443Z,9.711403
2022-08-29T06:57:05.287Z,9.711576
2022-08-29T06:58:05.280Z,9.711983
2022-08-29T06:59:05.285Z,9.712029
2022-08-29T07:00:12.467Z,9.711839
2022-08-29T07:01:06.345Z,9.711716
2022-08-29T07:02:05.950Z,9.711628
2022-08-29T07:03:05.295Z,9.711594
2022-08-29T07:04:05.243Z,9.711630
2022-08-29T07:05:06.245Z,9.711630
2022-08-29T07:06:05.225Z,9.711647
2022-08-29T07:07:05.234Z,9.711638
2022-08-29T07:08:05.219Z,9.711620
2022-08-29T07:09:05.222Z,9.711674
2022-08-29T07:10:05.199Z,9.711673
2022-08-29T07:11:05.185Z,9.711661
2022-08-29T07:12:05.178Z,9.711655
2022-08-29T07:13:05.195Z,9.711629
2022-08-29T07:14:05.171Z,9.711651
2022-08-29T07:15:05.165Z,9.711663
2022-08-29T07:16:05.187Z,9.711643
2022-08-29T07:17:05.144Z,9.711653
2022-08-29T07:18:05.175Z,9.711674
2022-08-29T07:19:05.118Z,9.711698
2022-08-29T07:20:05.111Z,9.711696
2022-08-29T07:21:05.113Z,9.711688
2022-08-29T07:22:05.108Z,9.711739
2022-08-29T07:23:05.087Z,9.711745
2022-08-29T07:24:05.088Z,9.711722
2022-08-29T07:25:05.091Z,9.711720
2022-08-29T07:26:05.063Z,9.711595
2022-08-29T07:27:05.065Z,9.711661
2022-08-29T07:28:05.067Z,9.711385
2022-08-29T07:29:05.060Z,9.710693
2022-08-29T07:30:05.047Z,9.710335
2022-08-29T07:31:05.107Z,9.710354
2022-08-29T07:32:05.027Z,9.710981
2022-08-29T07:33:05.023Z,9.711345
2022-08-29T07:34:05.050Z,9.713639
2022-08-29T07:35:04.994Z,9.711456
2022-08-29T07:36:04.997Z,9.711113
2022-08-29T07:37:05.836Z,9.711670
2022-08-29T07:38:05.993Z,9.711366
2022-08-29T07:39:04.964Z,9.711877
2022-08-29T07:40:04.999Z,9.711877
2022-08-29T07:41:04.963Z,9.711877
2022-08-29T07:42:04.949Z,9.711501
2022-08-29T07:43:04.939Z,9.711629
2022-08-29T07:44:04.928Z,9.711668
2022-08-29T07:45:04.924Z,9.711753
2022-08-29T07:46:05.532Z,9.711411
2022-08-29T07:47:04.904Z,9.711370
2022-08-29T07:48:04.925Z,9.711563
2022-08-29T07:49:05.892Z,9.711329
2022-08-29T07:50:04.893Z,9.711397
2022-08-29T07:51:08.431Z,9.711316
2022-08-29T07:52:06.872Z,9.711442
2022-08-29T07:53:04.871Z,9.711358
2022-08-29T07:54:04.855Z,9.711192
2022-08-29T07:55:04.851Z,9.711217
2022-08-29T07:56:04.831Z,9.711491
2022-08-29T07:57:04.844Z,9.711683
2022-08-29T07:58:04.824Z,9.711662
2022-08-29T07:59:04.811Z,9.711626
2022-08-29T08:00:05.389Z,9.711617
2022-08-29T08:01:04.889Z,9.711614
2022-08-29T08:02:04.869Z,9.711609
2022-08-29T08:03:04.886Z,9.711634
2022-08-29T08:04:04.769Z,9.711630
2022-08-29T08:05:06.916Z,9.711783
2022-08-29T08:06:07.083Z,9.711625
2022-08-29T08:07:04.741Z,9.711595
2022-08-29T08:08:09.025Z,9.711694
2022-08-29T08:09:06.744Z,9.711663
2022-08-29T08:10:04.727Z,9.711652
2022-08-29T08:11:04.721Z,9.711679
2022-08-29T08:12:08.171Z,9.711631
2022-08-29T08:13:05.728Z,9.711664
2022-08-29T08:14:04.700Z,9.711685
2022-08-29T08:15:04.678Z,9.711673
2022-08-29T08:16:04.691Z,9.711699
2022-08-29T08:17:04.688Z,9.711735
2022-08-29T08:18:04.669Z,9.711734
2022-08-29T08:19:04.648Z,9.711733
2022-08-29T08:20:04.638Z,9.711749
2022-08-29T08:21:04.644Z,9.711713
2022-08-29T08:22:04.623Z,9.711807
2022-08-29T08:23:04.675Z,9.711765
2022-08-29T08:24:04.617Z,9.711802
2022-08-29T08:25:04.596Z,9.711756
2022-08-29T08:26:04.593Z,9.711794
2022-08-29T08:27:05.585Z,9.711807
2022-08-29T08:28:04.579Z,9.711732
2022-08-29T08:29:04.592Z,9.711713
2022-08-29T08:30:04.565Z,9.711775
2022-08-29T08:31:06.274Z,9.711804
2022-08-29T08:32:05.542Z,9.711792
2022-08-29T08:33:04.532Z,9.711778
2022-08-29T08:34:04.531Z,9.711785
2022-08-29T08:35:04.520Z,9.711767
2022-08-29T08:36:04.512Z,9.711814
2022-08-29T08:37:04.503Z,9.711810
2022-08-29T08:38:04.494Z,9.711847
2022-08-29T08:39:04.486Z,9.711680
2022-08-29T08:40:05.563Z,9.711649
2022-08-29T08:41:04.989Z,9.711630
2022-08-29T08:42:04.476Z,9.711657
2022-08-29T08:43:04.446Z,9.711738
2022-08-29T08:44:04.447Z,9.711648
2022-08-29T08:45:04.437Z,9.711724
2022-08-29T08:46:04.475Z,9.711757
2022-08-29T08:47:04.435Z,9.711781
2022-08-29T08:48:04.419Z,9.711716
2022-08-29T08:49:04.408Z,9.711760
2022-08-29T08:50:04.389Z,9.711689
2022-08-29T08:51:04.381Z,9.711709
2022-08-29T08:52:04.376Z,9.711651
2022-08-29T08:53:04.389Z,9.711863
2022-08-29T08:54:04.360Z,9.711776
2022-08-29T08:55:04.358Z,9.711691
2022-08-29T08:56:04.343Z,9.711643
2022-08-29T08:57:04.357Z,9.711808
2022-08-29T08:58:04.327Z,9.711681
2022-08-29T08:59:04.315Z,9.711721
2022-08-29T09:00:04.320Z,9.711746
2022-08-29T09:01:04.378Z,9.711778
2022-08-29T09:02:06.753Z,9.711735
2022-08-29T09:03:04.284Z,9.711679
2022-08-29T09:04:04.278Z,9.711739
2022-08-29T09:05:04.266Z,9.711857
2022-08-29T09:06:04.263Z,9.711806
2022-08-29T09:07:04.266Z,9.711874
2022-08-29T09:08:04.244Z,9.711768
2022-08-29T09:09:04.235Z,9.711770
2022-08-29T09:10:04.223Z,9.711736
2022-08-29T09:11:04.220Z,9.711721
2022-08-29T09:12:04.219Z,9.711692
2022-08-29T09:13:04.207Z,9.711761
2022-08-29T09:14:04.192Z,9.711663
2022-08-29T09:15:04.175Z,9.711673
2022-08-29T09:16:04.193Z,9.711681
2022-08-29T09:17:04.163Z,9.711712
2022-08-29T09:18:04.161Z,9.711696
2022-08-29T09:19:04.148Z,9.711674
2022-08-29T09:20:04.136Z,9.711712
2022-08-29T09:21:10.075Z,9.711736
2022-08-29T09:22:05.115Z,9.711715
2022-08-29T09:23:04.118Z,9.711676
2022-08-29T09:24:04.104Z,9.711689
2022-08-29T09:25:04.101Z,9.711774
2022-08-29T09:26:04.097Z,9.711802
2022-08-29T09:27:04.081Z,9.711803
2022-08-29T09:28:04.090Z,9.711716
2022-08-29T09:29:04.069Z,9.711682
2022-08-29T09:30:04.065Z,9.711743
2022-08-29T09:31:04.061Z,9.711676
2022-08-29T09:32:04.103Z,9.711744
2022-08-29T09:33:04.183Z,9.711676
2022-08-29T09:34:04.089Z,9.711751
2022-08-29T09:35:08.794Z,9.711796
2022-08-29T09:36:05.021Z,9.711865
2022-08-29T09:37:04.007Z,9.711687
2022-08-29T09:38:04.001Z,9.711707
2022-08-29T09:39:03.991Z,9.711639
2022-08-29T09:40:04.029Z,9.711777
2022-08-29T09:41:03.981Z,9.711988
2022-08-29T09:42:03.958Z,9.711823
2022-08-29T09:43:03.951Z,9.711790
2022-08-29T09:44:03.949Z,9.711854
2022-08-29T09:45:03.947Z,9.711802
2022-08-29T09:46:04.014Z,9.711695
2022-08-29T09:47:03.931Z,9.711708
2022-08-29T09:48:03.916Z,9.711727
2022-08-29T09:49:03.907Z,9.711764
2022-08-29T09:50:03.918Z,9.711849
2022-08-29T09:51:04.518Z,9.711819
2022-08-29T09:52:03.913Z,9.711801
2022-08-29T09:53:05.754Z,9.711637
2022-08-29T09:54:04.877Z,9.711619
2022-08-29T09:55:03.900Z,9.711548
2022-08-29T09:56:03.845Z,9.711583
2022-08-29T09:57:03.876Z,9.711535
2022-08-29T09:58:03.843Z,9.711637
2022-08-29T09:59:03.829Z,9.711543
2022-08-29T10:00:03.815Z,9.711584
2022-08-29T10:01:04.486Z,9.711749
2022-08-29T10:02:03.881Z,9.711790
2022-08-29T10:03:03.825Z,9.711805
2022-08-29T10:04:03.826Z,9.711712
2022-08-29T10:05:03.781Z,9.711742
2022-08-29T10:06:03.769Z,9.711737
2022-08-29T10:07:03.819Z,9.711548
2022-08-29T10:08:36.956Z,9.711620
2022-08-29T10:09:03.737Z,9.711718
2022-08-29T10:10:04.744Z,9.711862
2022-08-29T10:11:03.727Z,9.711687
2022-08-29T10:12:03.727Z,9.711669
2022-08-29T10:13:03.707Z,9.711734
2022-08-29T10:14:03.709Z,9.711659
2022-08-29T10:15:03.720Z,9.711718
2022-08-29T10:16:03.708Z,9.711606
2022-08-29T10:17:03.737Z,9.711458
2022-08-29T10:18:03.669Z,9.711523
2022-08-29T10:19:03.664Z,9.712108
2022-08-29T10:20:03.673Z,9.711821
2022-08-29T10:21:03.656Z,9.711618
2022-08-29T10:22:03.640Z,9.711648
2022-08-29T10:23:03.627Z,9.711713
2022-08-29T10:24:03.653Z,9.711758
2022-08-29T10:25:03.613Z,9.711770
2022-08-29T10:26:03.602Z,9.711692
2022-08-29T10:27:03.611Z,9.711656
2022-08-29T10:28:03.597Z,9.711619
2022-08-29T10:29:03.593Z,9.711799
2022-08-29T10:30:03.593Z,9.711861
2022-08-29T10:31:03.561Z,9.711834
2022-08-29T10:32:03.590Z,9.711787
2022-08-29T10:33:03.549Z,9.711770
2022-08-29T10:34:03.539Z,9.711701
2022-08-29T10:35:03.538Z,9.711802
2022-08-29T10:36:03.545Z,9.711801
2022-08-29T10:37:03.515Z,9.711757
2022-08-29T10:38:03.531Z,9.711878
2022-08-29T10:39:03.504Z,9.711895
2022-08-29T10:40:03.567Z,9.711832
2022-08-29T10:41:03.483Z,9.711784
2022-08-29T10:42:06.087Z,9.711768
2022-08-29T10:43:03.483Z,9.711777
2022-08-29T10:44:03.545Z,9.711753
2022-08-29T10:45:03.462Z,9.711740
2022-08-29T10:46:03.516Z,9.711794
2022-08-29T10:47:03.444Z,9.711775
2022-08-29T10:48:03.428Z,9.711760
2022-08-29T10:49:03.422Z,9.711764
2022-08-29T10:50:03.447Z,9.711754
2022-08-29T10:51:03.409Z,9.711801
2022-08-29T10:52:03.440Z,9.711805
2022-08-29T10:53:03.400Z,9.711764
2022-08-29T10:54:05.967Z,9.711772
2022-08-29T10:55:03.397Z,9.711792
2022-08-29T10:56:06.853Z,9.711800
2022-08-29T10:57:04.364Z,9.711808
2022-08-29T10:58:05.042Z,9.711803
2022-08-29T10:59:03.344Z,9.711742
2022-08-29T11:00:03.347Z,9.711719
2022-08-29T11:01:08.450Z,9.711771
2022-08-29T11:02:05.329Z,9.711766
2022-08-29T11:03:03.330Z,9.711766
2022-08-29T11:04:03.968Z,9.711808
2022-08-29T11:05:03.297Z,9.711746
2022-08-29T11:06:03.293Z,9.711792
2022-08-29T11:07:03.277Z,9.711882
2022-08-29T11:08:03.267Z,9.711738
2022-08-29T11:09:03.267Z,9.711898
2022-08-29T11:10:03.345Z,9.711814
2022-08-29T11:11:03.245Z,9.711780
2022-08-29T11:12:03.235Z,9.711762
2022-08-29T11:13:03.224Z,9.711790
2022-08-29T11:14:05.747Z,9.711800
2022-08-29T11:15:04.255Z,9.711801
2022-08-29T11:16:03.270Z,9.711770
2022-08-29T11:17:03.504Z,9.711946
2022-08-29T11:18:03.193Z,9.711886
2022-08-29T11:19:03.184Z,9.711620
2022-08-29T11:20:03.186Z,9.711723
2022-08-29T11:21:03.174Z,9.711571
2022-08-29T11:22:03.188Z,9.711617
2022-08-29T11:23:03.157Z,9.712175
2022-08-29T11:24:04.050Z,9.712108
2022-08-29T11:25:04.981Z,9.711890
2022-08-29T11:26:03.138Z,9.711862
2022-08-29T11:27:03.120Z,9.711901
2022-08-29T11:28:03.121Z,9.711980
2022-08-29T11:29:03.114Z,9.712002
2022-08-29T11:30:03.179Z,9.712087
2022-08-29T11:31:03.160Z,9.712000
2022-08-29T11:32:03.103Z,9.711895
2022-08-29T11:33:03.077Z,9.711867
2022-08-29T11:34:03.125Z,9.711950
2022-08-29T11:35:03.069Z,9.711918
2022-08-29T11:36:05.041Z,9.712184
2022-08-29T11:37:04.055Z,9.712072
2022-08-29T11:38:03.038Z,9.711984
2022-08-29T11:39:03.034Z,9.712165
2022-08-29T11:40:03.060Z,9.712175
2022-08-29T11:42:05.028Z,9.712362
2022-08-29T11:43:03.002Z,9.712402
2022-08-29T11:44:04.003Z,9.712388
2022-08-29T11:45:02.993Z,9.711841
2022-08-29T11:46:02.976Z,9.712195
2022-08-29T11:47:03.062Z,9.712206
2022-08-29T11:48:02.960Z,9.712422
2022-08-29T11:49:02.994Z,9.712362
2022-08-29T11:50:02.991Z,9.712411
2022-08-29T11:51:02.936Z,9.712054
2022-08-29T11:52:02.934Z,9.712400
2022-08-29T11:53:02.918Z,9.712085
2022-08-29T11:54:02.918Z,9.711966
2022-08-29T11:55:03.516Z,9.711938
2022-08-29T11:56:02.911Z,9.712273
2022-08-29T11:57:02.892Z,9.712516
2022-08-29T11:58:05.728Z,9.712185
2022-08-29T11:59:03.900Z,9.712359
2022-08-29T12:00:02.910Z,9.712266
2022-08-29T12:01:02.854Z,9.711810
2022-08-29T12:02:02.938Z,9.711450
2022-08-29T12:03:07.284Z,9.711418
2022-08-29T12:04:03.851Z,9.711394
2022-08-29T12:05:02.861Z,9.711468
2022-08-29T12:06:02.818Z,9.711397
2022-08-29T12:07:02.809Z,9.711519
2022-08-29T12:08:26.332Z,9.711576
2022-08-29T12:09:07.136Z,9.711482
2022-08-29T12:10:03.802Z,9.711433
2022-08-29T12:11:02.786Z,9.711480
2022-08-29T12:12:02.807Z,9.711443
2022-08-29T12:13:02.768Z,9.711485
2022-08-29T12:14:02.752Z,9.711385
2022-08-29T12:15:02.764Z,9.711256
2022-08-29T12:16:02.786Z,9.711374
2022-08-29T12:17:02.761Z,9.711241
2022-08-29T12:18:04.523Z,9.711247
2022-08-29T12:19:03.759Z,9.711357
2022-08-29T12:20:02.847Z,9.711533
2022-08-29T12:21:03.506Z,9.711585
2022-08-29T12:22:02.714Z,9.711597
2022-08-29T12:23:02.692Z,9.711796
2022-08-29T12:24:02.682Z,9.711554
2022-08-29T12:25:02.713Z,9.711550
2022-08-29T12:26:21.923Z,9.711457
2022-08-29T12:27:04.655Z,9.711229
2022-08-29T12:28:02.703Z,9.711042
2022-08-29T12:29:02.634Z,9.711605
2022-08-29T12:30:03.629Z,9.711546